Time;durP1;ratioP1;P1;durP2;ratioP2;P2;SDS_P1;SDS_P2;PMS_P1;PMS_P2;Temp;Humidity;BMP_temperature;BMP_pressure;BME280_temperature;BME280_humidity;BME280_pressure;Samples;Min_cycle;Max_cycle;Signal;HPM_P1;HPM_P2
2022/11/24 00:01:10;;;;;;;37.00;12.50;;;5.70;99.90;;;;;;4997674;28;20466;-87
2022/11/24 00:04:04;;;;;;;46.97;13.70;;;5.80;99.90;;;;;;5012045;28;20025;-87
2022/11/24 00:06:32;;;;;;;40.15;11.95;;;5.70;99.90;;;;;;4996658;28;20093;-87
2022/11/24 00:08:58;;;;;;;40.22;12.30;;;5.70;99.90;;;;;;4994425;28;20038;-87
2022/11/24 00:11:26;;;;;;;65.10;12.38;;;5.70;99.90;;;;;;4996506;28;20034;-87
2022/11/24 00:13:52;;;;;;;39.45;12.63;;;5.80;99.90;;;;;;5004927;28;20088;-87
2022/11/24 00:16:24;;;;;;;51.67;12.50;;;5.80;99.90;;;;;;4987195;28;20402;-87
2022/11/24 00:18:52;;;;;;;32.45;11.93;;;5.80;99.90;;;;;;5011922;28;20041;-88
2022/11/24 00:21:19;;;;;;;42.22;12.88;;;5.80;99.90;;;;;;5001081;28;20019;-88
2022/11/24 00:23:45;;;;;;;45.78;12.23;;;5.80;99.90;;;;;;5005868;28;20034;-87
2022/11/24 00:26:17;;;;;;;30.42;12.50;;;5.90;99.90;;;;;;4991823;28;20601;-88
2022/11/24 00:28:45;;;;;;;52.88;13.90;;;5.90;99.90;;;;;;5005747;28;20049;-87
2022/11/24 00:31:26;;;;;;;54.35;14.20;;;5.90;99.90;;;;;;5009390;28;20030;-87
2022/11/24 00:33:54;;;;;;;46.67;14.15;;;5.90;99.90;;;;;;5006472;28;20060;-88
2022/11/24 00:36:21;;;;;;;39.55;15.50;;;5.90;99.90;;;;;;4989943;28;20037;-88
2022/11/24 00:38:51;;;;;;;44.45;15.27;;;5.90;99.90;;;;;;5005604;28;20355;-87
2022/11/24 00:41:17;;;;;;;44.90;15.98;;;5.90;99.90;;;;;;5007147;28;20026;-88
2022/11/24 00:43:42;;;;;;;42.88;14.75;;;5.90;99.90;;;;;;4989257;28;20026;-88
2022/11/24 00:46:08;;;;;;;57.33;15.45;;;6.00;99.90;;;;;;5006576;28;20034;-87
2022/11/24 00:48:34;;;;;;;54.22;17.92;;;6.00;99.90;;;;;;4990328;28;20034;-88
2022/11/24 00:51:02;;;;;;;50.88;15.02;;;6.00;99.90;;;;;;5007455;28;20029;-87
2022/11/24 00:53:29;;;;;;;50.70;15.73;;;6.00;99.90;;;;;;4989130;28;20037;-87
2022/11/24 00:55:55;;;;;;;37.80;14.77;;;6.00;99.90;;;;;;5007064;28;20464;-88
2022/11/24 00:58:22;;;;;;;45.22;15.35;;;6.00;99.90;;;;;;4990570;28;20038;-88
2022/11/24 01:00:48;;;;;;;56.28;15.88;;;6.00;99.90;;;;;;5005395;28;20030;-87
2022/11/24 01:03:15;;;;;;;67.60;15.50;;;6.10;99.90;;;;;;4990997;28;20041;-87
2022/11/24 01:05:41;;;;;;;49.50;14.88;;;6.00;99.90;;;;;;4989904;28;20093;-87
2022/11/24 01:08:07;;;;;;;48.80;15.10;;;6.10;99.90;;;;;;5006569;28;20040;-87
2022/11/24 01:10:33;;;;;;;43.97;13.82;;;6.10;99.90;;;;;;4980211;28;20034;-87
2022/11/24 01:12:59;;;;;;;54.72;15.32;;;6.00;99.90;;;;;;4998265;28;20028;-88
2022/11/24 01:15:25;;;;;;;48.22;13.85;;;6.10;99.90;;;;;;4988189;28;20030;-87
2022/11/24 01:17:51;;;;;;;50.97;16.38;;;6.00;99.90;;;;;;5004118;28;20045;-87
2022/11/24 01:20:17;;;;;;;54.67;14.10;;;6.00;99.90;;;;;;4990502;28;20026;-87
2022/11/24 01:22:42;;;;;;;36.33;13.73;;;6.00;99.90;;;;;;5005053;28;20284;-87
2022/11/24 01:25:10;;;;;;;50.13;16.08;;;6.00;99.90;;;;;;4991678;28;20026;-88
2022/11/24 01:27:35;;;;;;;50.95;13.57;;;6.00;99.90;;;;;;4989584;28;20061;-87
2022/11/24 01:30:01;;;;;;;52.70;12.57;;;6.10;99.90;;;;;;4989949;28;20065;-88
2022/11/24 01:32:27;;;;;;;44.03;13.32;;;6.10;99.90;;;;;;4990568;28;20037;-87
2022/11/24 01:34:53;;;;;;;34.00;12.32;;;6.10;99.90;;;;;;4988026;28;20025;-87
2022/11/24 01:37:18;;;;;;;57.72;14.25;;;6.00;99.90;;;;;;4990412;28;20500;-90
2022/11/24 01:39:44;;;;;;;31.00;12.73;;;6.10;99.90;;;;;;5004772;28;20073;-89
2022/11/24 01:42:10;;;;;;;61.03;14.43;;;6.10;99.90;;;;;;4990550;28;20549;-87
2022/11/24 01:44:35;;;;;;;47.88;13.30;;;6.10;99.90;;;;;;4989164;28;20034;-87
2022/11/24 01:47:21;;;;;;;45.45;13.38;;;6.10;99.90;;;;;;4990341;28;20026;-88
2022/11/24 01:49:53;;;;;;;55.45;12.50;;;6.00;99.90;;;;;;5004070;28;20034;-87
2022/11/24 01:52:28;;;;;;;46.28;12.13;;;6.00;99.90;;;;;;5007797;28;20033;-86
2022/11/24 01:55:20;;;;;;;55.17;13.88;;;6.00;99.90;;;;;;4987033;28;20038;-86
2022/11/24 01:57:52;;;;;;;48.53;12.60;;;6.00;99.90;;;;;;5009196;28;20030;-87
2022/11/24 02:00:18;;;;;;;34.15;11.27;;;6.00;99.90;;;;;;4995569;28;20426;-87
2022/11/24 02:02:44;;;;;;;46.85;11.57;;;6.10;99.90;;;;;;5010214;28;20018;-87
2022/11/24 02:05:18;;;;;;;32.00;10.70;;;6.00;99.90;;;;;;4987126;28;20496;-87
2022/11/24 02:07:45;;;;;;;48.88;10.02;;;6.00;99.90;;;;;;5005556;28;20497;-87
2022/11/24 02:10:13;;;;;;;42.08;12.18;;;6.00;99.90;;;;;;4991121;28;20054;-87
2022/11/24 02:12:42;;;;;;;37.65;11.23;;;6.00;99.90;;;;;;5004248;28;20478;-88
2022/11/24 02:15:08;;;;;;;43.33;11.95;;;6.00;99.90;;;;;;4991867;28;20037;-87
2022/11/24 02:17:34;;;;;;;43.58;15.07;;;6.10;99.90;;;;;;5001563;28;20030;-88
2022/11/24 02:20:06;;;;;;;47.80;13.52;;;6.00;99.90;;;;;;5006645;28;20036;-87
2022/11/24 02:23:07;;;;;;;45.10;13.70;;;6.00;99.90;;;;;;5005764;28;20053;-88
2022/11/24 02:25:56;;;;;;;44.78;12.80;;;6.00;99.90;;;;;;4984100;28;20480;-87
2022/11/24 02:28:25;;;;;;;49.38;11.73;;;6.00;99.90;;;;;;5004396;28;20489;-88
2022/11/24 02:30:51;;;;;;;36.85;13.55;;;6.00;99.90;;;;;;4987014;28;20045;-88
2022/11/24 02:33:18;;;;;;;43.80;12.35;;;6.00;99.90;;;;;;5002959;28;20026;-89
2022/11/24 02:35:43;;;;;;;34.83;10.95;;;6.00;99.90;;;;;;5008152;28;20136;-88
2022/11/24 02:38:13;;;;;;;48.03;14.27;;;6.00;99.90;;;;;;4993803;28;20099;-88
2022/11/24 02:40:48;;;;;;;43.45;12.43;;;6.00;99.90;;;;;;5006866;28;20022;-88
2022/11/24 02:43:18;;;;;;;59.13;11.73;;;6.00;99.90;;;;;;4994868;28;20483;-88
2022/11/24 02:45:44;;;;;;;33.95;10.77;;;6.00;99.90;;;;;;5024830;28;20102;-88
2022/11/24 02:48:09;;;;;;;47.38;10.73;;;6.00;99.90;;;;;;5019830;28;20070;-88
2022/11/24 02:50:35;;;;;;;50.97;12.57;;;6.00;99.90;;;;;;5002815;28;20033;-88
2022/11/24 02:53:01;;;;;;;45.90;11.23;;;6.00;99.90;;;;;;5008622;28;20022;-88
2022/11/24 02:55:26;;;;;;;34.95;9.65;;;6.00;99.90;;;;;;5002605;28;20034;-88
2022/11/24 02:57:52;;;;;;;49.55;10.07;;;5.90;99.90;;;;;;5010130;28;20105;-88
2022/11/24 03:00:18;;;;;;;39.40;8.82;;;5.90;99.90;;;;;;4997451;28;20114;-88
2022/11/24 03:03:21;;;;;;;38.05;9.85;;;5.90;99.90;;;;;;5008203;28;20061;-88
2022/11/24 03:05:46;;;;;;;45.50;9.63;;;5.90;99.90;;;;;;5019292;28;20022;-88
2022/11/24 03:08:12;;;;;;;45.90;9.45;;;5.80;99.90;;;;;;4997969;28;20084;-88
2022/11/24 03:10:38;;;;;;;53.78;9.55;;;5.70;99.90;;;;;;5003664;28;20089;-90
2022/11/24 03:13:04;;;;;;;36.63;8.52;;;5.70;99.90;;;;;;5006432;28;20076;-88
2022/11/24 03:15:29;;;;;;;43.13;9.68;;;5.70;99.90;;;;;;4999149;28;20042;-88
2022/11/24 03:17:55;;;;;;;32.92;11.27;;;5.70;99.90;;;;;;5002937;28;20496;-88
2022/11/24 03:20:21;;;;;;;41.00;8.75;;;5.70;99.90;;;;;;4988719;28;20064;-88
2022/11/24 03:22:47;;;;;;;45.05;9.48;;;5.60;99.90;;;;;;5019994;28;20031;-88
2022/11/24 03:25:13;;;;;;;33.72;9.15;;;5.60;99.90;;;;;;5005536;28;20411;-88
2022/11/24 03:27:38;;;;;;;32.47;7.22;;;5.60;99.90;;;;;;5005418;28;20037;-88
2022/11/24 03:30:05;;;;;;;44.67;9.82;;;5.50;99.90;;;;;;5005098;28;20032;-89
2022/11/24 03:32:55;;;;;;;30.02;6.97;;;5.50;99.90;;;;;;5005377;28;20037;-88
2022/11/24 03:35:21;;;;;;;39.63;7.78;;;5.40;99.90;;;;;;5002878;28;20063;-87
2022/11/24 03:37:47;;;;;;;41.67;8.90;;;5.40;99.90;;;;;;5003013;28;20494;-88
2022/11/24 03:40:13;;;;;;;52.00;9.48;;;5.40;99.90;;;;;;5006743;28;20092;-88
2022/11/24 03:42:39;;;;;;;43.90;11.80;;;5.40;99.90;;;;;;5004477;28;20044;-89
2022/11/24 03:45:05;;;;;;;32.42;9.88;;;5.40;99.90;;;;;;5006298;28;20025;-88
2022/11/24 03:47:51;;;;;;;45.50;10.85;;;5.50;99.90;;;;;;4991796;28;20045;-88
2022/11/24 03:50:16;;;;;;;51.78;12.07;;;5.50;99.90;;;;;;4996368;28;20062;-88
2022/11/24 03:52:42;;;;;;;44.83;12.82;;;5.50;99.90;;;;;;5007729;28;20096;-88
2022/11/24 03:55:08;;;;;;;54.83;13.57;;;5.50;99.90;;;;;;4992909;28;20034;-88
2022/11/24 03:57:33;;;;;;;42.28;9.80;;;5.50;99.90;;;;;;5005286;28;20490;-89
2022/11/24 04:00:27;;;;;;;44.00;11.15;;;5.50;99.90;;;;;;4997660;28;20018;-88
2022/11/24 04:02:53;;;;;;;36.17;10.48;;;5.50;99.90;;;;;;5009826;28;20027;-88
2022/11/24 04:05:19;;;;;;;53.17;11.07;;;5.50;99.90;;;;;;4995360;28;20450;-89
2022/11/24 04:07:44;;;;;;;54.88;10.52;;;5.50;99.90;;;;;;5018157;28;20061;-88
2022/11/24 04:10:10;;;;;;;49.17;9.93;;;5.50;99.90;;;;;;5005656;28;20482;-88
2022/11/24 04:12:44;;;;;;;36.65;8.52;;;5.50;99.90;;;;;;5003000;28;20030;-88
2022/11/24 04:15:37;;;;;;;56.13;11.85;;;5.50;99.90;;;;;;5006887;28;20031;-88
2022/11/24 04:18:03;;;;;;;43.90;9.18;;;5.50;99.90;;;;;;5010391;28;20597;-88
2022/11/24 04:20:29;;;;;;;50.60;10.68;;;5.40;99.90;;;;;;5005271;28;20050;-88
2022/11/24 04:22:54;;;;;;;49.05;7.72;;;5.40;99.90;;;;;;5002946;28;20026;-88
2022/11/24 04:25:20;;;;;;;50.72;8.15;;;5.40;99.90;;;;;;5005056;28;20354;-88
2022/11/24 04:27:50;;;;;;;41.03;7.30;;;5.40;99.90;;;;;;5005395;28;20038;-89
2022/11/24 04:30:16;;;;;;;47.30;7.30;;;5.40;99.90;;;;;;5005314;28;20373;-89
2022/11/24 04:32:42;;;;;;;42.00;8.70;;;5.50;99.90;;;;;;5004767;28;20037;-89
2022/11/24 04:39:13;;;;;;;42.25;8.57;;;5.50;99.90;;;;;;5007607;28;20472;-89
2022/11/24 04:41:39;;;;;;;50.42;8.05;;;5.60;99.90;;;;;;4995903;28;20082;-89
2022/11/24 04:44:04;;;;;;;57.83;9.95;;;5.60;99.90;;;;;;4999007;28;20057;-89
2022/11/24 04:46:30;;;;;;;58.45;9.68;;;5.70;99.90;;;;;;5004145;28;20086;-89
2022/11/24 04:48:56;;;;;;;46.38;9.32;;;5.70;99.90;;;;;;5008232;28;20030;-89
2022/11/24 04:51:21;;;;;;;56.95;10.50;;;5.70;99.90;;;;;;5024702;28;20489;-88
2022/11/24 04:53:48;;;;;;;41.30;11.35;;;5.80;99.90;;;;;;5007478;28;20030;-89
2022/11/24 04:56:13;;;;;;;58.33;9.23;;;5.80;99.90;;;;;;4992836;28;20491;-89
2022/11/24 04:58:39;;;;;;;44.25;10.15;;;5.80;99.90;;;;;;5008261;28;20023;-89
2022/11/24 05:01:08;;;;;;;55.63;9.20;;;5.90;99.90;;;;;;5009624;28;20085;-89
2022/11/24 05:03:35;;;;;;;52.25;10.55;;;5.80;99.90;;;;;;5008950;28;20018;-89
2022/11/24 05:06:01;;;;;;;40.53;9.50;;;5.90;99.90;;;;;;5009889;28;20022;-89
2022/11/24 05:08:33;;;;;;;60.75;11.23;;;5.90;99.90;;;;;;5007209;28;20036;-89
2022/11/24 05:11:04;;;;;;;59.80;13.00;;;5.90;99.90;;;;;;4992074;28;20448;-89
2022/11/24 05:13:30;;;;;;;89.40;11.50;;;5.80;99.90;;;;;;4991948;28;20500;-89
2022/11/24 05:15:56;;;;;;;54.50;10.57;;;5.80;99.90;;;;;;5005681;28;20062;-90
2022/11/24 05:18:22;;;;;;;57.03;12.35;;;5.80;99.90;;;;;;5009377;28;20033;-90
2022/11/24 05:20:48;;;;;;;40.53;9.88;;;5.80;99.90;;;;;;4989443;28;20034;-89
2022/11/24 05:23:14;;;;;;;62.88;11.02;;;5.90;99.90;;;;;;5008613;28;20121;-89
2022/11/24 05:25:40;;;;;;;46.28;12.07;;;5.90;99.90;;;;;;4990240;28;20033;-89
2022/11/24 05:28:10;;;;;;;50.28;12.02;;;5.90;99.90;;;;;;5008758;28;20026;-89
2022/11/24 05:30:39;;;;;;;60.95;13.27;;;5.90;99.90;;;;;;4992028;28;20081;-89
2022/11/24 05:33:06;;;;;;;54.35;9.65;;;5.90;99.90;;;;;;4995232;28;20034;-89
2022/11/24 05:35:34;;;;;;;60.63;10.32;;;5.90;99.90;;;;;;5007008;28;20064;-88
2022/11/24 05:38:00;;;;;;;40.63;11.30;;;5.90;99.90;;;;;;4999670;28;20453;-89
2022/11/24 05:40:25;;;;;;;55.60;11.27;;;5.90;99.90;;;;;;5010351;28;20061;-88
2022/11/24 05:42:51;;;;;;;50.88;11.57;;;5.90;99.90;;;;;;5006674;28;20129;-89
2022/11/24 05:45:19;;;;;;;67.90;11.23;;;5.90;99.90;;;;;;5010014;28;20049;-89
2022/11/24 05:47:45;;;;;;;48.53;9.85;;;5.90;99.90;;;;;;4989682;28;20424;-89
2022/11/24 05:50:14;;;;;;;49.13;8.70;;;5.90;99.90;;;;;;4994001;28;20089;-89
2022/11/24 05:52:40;;;;;;;48.03;7.95;;;5.90;99.90;;;;;;5008153;28;20474;-88
2022/11/24 05:55:07;;;;;;;51.20;9.45;;;5.90;99.90;;;;;;5004321;28;20042;-88
2022/11/24 05:57:33;;;;;;;59.58;9.02;;;5.90;99.90;;;;;;5010469;28;20216;-89
2022/11/24 05:59:59;;;;;;;46.30;9.15;;;5.90;99.90;;;;;;4998718;28;20125;-89
2022/11/24 06:02:25;;;;;;;63.78;8.85;;;6.00;99.90;;;;;;5011791;28;20057;-89
2022/11/24 06:04:50;;;;;;;47.03;7.20;;;6.00;99.90;;;;;;5004824;28;20025;-88
2022/11/24 06:07:16;;;;;;;47.75;8.40;;;6.00;99.90;;;;;;4998899;28;20057;-89
2022/11/24 06:09:42;;;;;;;44.47;8.23;;;6.00;99.90;;;;;;4995488;28;20034;-87
2022/11/24 06:12:12;;;;;;;56.30;9.10;;;6.00;99.90;;;;;;4981983;28;20125;-88
2022/11/24 06:14:43;;;;;;;54.35;9.98;;;6.00;99.90;;;;;;4995328;28;20109;-89
2022/11/24 06:17:12;;;;;;;54.97;9.35;;;6.00;99.90;;;;;;4995518;28;20038;-89
2022/11/24 06:23:26;;;;;;;42.03;8.73;;;6.00;99.90;;;;;;4992175;28;20037;-88
2022/11/24 06:25:52;;;;;;;43.28;9.38;;;6.00;99.90;;;;;;4988878;28;20821;-88
2022/11/24 06:28:17;;;;;;;46.28;9.98;;;6.00;99.90;;;;;;4989624;28;20038;-89
2022/11/24 06:30:43;;;;;;;46.28;9.13;;;6.00;99.90;;;;;;4994393;28;20038;-88
2022/11/24 06:33:09;;;;;;;47.03;9.73;;;5.90;99.90;;;;;;4994899;28;20049;-88
2022/11/24 06:35:34;;;;;;;43.13;9.75;;;5.90;99.90;;;;;;4994359;28;20030;-88
2022/11/24 06:38:00;;;;;;;56.75;11.82;;;5.90;99.90;;;;;;4987890;28;20041;-87
2022/11/24 06:40:26;;;;;;;57.63;10.45;;;5.90;99.90;;;;;;4994571;28;20589;-87
2022/11/24 06:42:51;;;;;;;43.60;12.13;;;5.90;99.90;;;;;;4992316;28;20030;-88
2022/11/24 06:45:17;;;;;;;37.85;8.13;;;5.90;99.90;;;;;;5004991;28;20031;-88
2022/11/24 06:47:43;;;;;;;43.88;9.77;;;5.90;99.90;;;;;;5009970;28;20038;-87
2022/11/24 06:50:09;;;;;;;59.22;9.60;;;5.80;99.90;;;;;;4988070;28;20108;-89
2022/11/24 06:52:35;;;;;;;51.83;9.20;;;5.80;99.90;;;;;;4999278;28;20478;-88
2022/11/24 06:55:24;;;;;;;43.30;9.65;;;5.80;99.90;;;;;;4991217;28;20115;-89
2022/11/24 06:57:50;;;;;;;35.58;10.25;;;5.80;99.90;;;;;;5009666;28;20121;-88
2022/11/24 07:00:18;;;;;;;71.30;12.23;;;5.80;99.90;;;;;;4989594;28;20489;-88
2022/11/24 07:03:37;;;;;;;35.83;9.18;;;5.80;99.90;;;;;;4995007;28;20054;-89
2022/11/24 07:06:03;;;;;;;44.78;9.60;;;5.90;99.90;;;;;;4986356;28;20019;-88
2022/11/24 07:08:28;;;;;;;40.03;8.90;;;5.80;99.90;;;;;;5001286;28;20036;-89
2022/11/24 07:10:54;;;;;;;40.92;9.82;;;5.80;99.90;;;;;;4988356;28;20399;-88
2022/11/24 07:13:20;;;;;;;34.20;8.63;;;5.80;99.90;;;;;;4985224;28;20030;-88
2022/11/24 07:15:46;;;;;;;28.60;8.13;;;5.80;99.90;;;;;;4999466;28;20470;-88
2022/11/24 07:18:12;;;;;;;32.70;9.55;;;5.80;99.90;;;;;;4987163;28;20034;-88
2022/11/24 07:20:38;;;;;;;33.08;8.88;;;5.80;99.90;;;;;;4991755;28;20070;-88
2022/11/24 07:23:04;;;;;;;38.55;9.63;;;5.80;99.90;;;;;;4976438;28;20031;-88
2022/11/24 07:25:30;;;;;;;38.58;10.10;;;5.80;99.90;;;;;;4979974;28;20443;-88
2022/11/24 07:27:59;;;;;;;37.50;11.02;;;5.80;99.90;;;;;;4994197;28;20086;-88
2022/11/24 07:30:25;;;;;;;43.83;12.07;;;5.80;99.90;;;;;;4994270;28;20034;-87
2022/11/24 07:32:51;;;;;;;33.28;11.05;;;5.80;99.90;;;;;;4993270;28;20482;-87
2022/11/24 07:35:17;;;;;;;37.92;11.73;;;5.80;99.90;;;;;;4992808;28;20045;-87
2022/11/24 07:38:20;;;;;;;35.03;8.98;;;5.70;99.90;;;;;;4992010;28;20514;-88
2022/11/24 07:41:22;;;;;;;33.20;7.82;;;5.70;99.90;;;;;;4977571;28;20069;-87
2022/11/24 07:43:48;;;;;;;35.80;7.07;;;5.70;99.90;;;;;;4975907;28;20034;-88
2022/11/24 07:46:15;;;;;;;26.45;7.07;;;5.70;99.90;;;;;;4986279;28;20054;-88
2022/11/24 07:48:41;;;;;;;29.60;7.55;;;5.70;99.90;;;;;;4991449;28;20022;-87
2022/11/24 07:51:08;;;;;;;28.75;7.10;;;5.70;99.90;;;;;;4989723;28;20041;-87
2022/11/24 07:53:35;;;;;;;20.95;8.02;;;5.70;99.90;;;;;;4977722;28;20041;-87
2022/11/24 07:56:02;;;;;;;27.27;7.30;;;5.70;99.90;;;;;;4991360;28;20040;-87
2022/11/24 07:58:30;;;;;;;31.60;8.98;;;5.70;99.90;;;;;;4977760;28;20092;-87
2022/11/24 08:00:56;;;;;;;29.70;8.00;;;5.70;99.90;;;;;;4983355;28;20596;-87
2022/11/24 08:03:24;;;;;;;44.50;10.57;;;5.70;99.90;;;;;;4978045;28;20053;-87
2022/11/24 08:05:57;;;;;;;34.15;11.30;;;5.80;99.90;;;;;;4994886;28;20018;-87
2022/11/24 08:08:23;;;;;;;37.97;12.02;;;5.80;99.90;;;;;;4987032;28;20031;-87
2022/11/24 08:10:50;;;;;;;46.60;15.07;;;5.80;99.90;;;;;;4980757;28;20533;-88
2022/11/24 08:13:16;;;;;;;53.55;12.57;;;5.80;99.90;;;;;;4980096;28;20482;-87
2022/11/24 08:15:42;;;;;;;52.22;13.65;;;5.80;99.90;;;;;;4990216;28;20031;-87
2022/11/24 08:18:08;;;;;;;45.72;12.05;;;5.80;99.90;;;;;;4980944;28;20466;-87
2022/11/24 08:21:12;;;;;;;26.15;11.48;;;5.80;99.90;;;;;;4992596;28;20039;-88
2022/11/24 08:23:38;;;;;;;49.67;12.77;;;5.80;99.90;;;;;;4995050;28;20100;-87
2022/11/24 08:26:07;;;;;;;39.15;12.68;;;5.80;99.90;;;;;;4980178;28;20026;-87
2022/11/24 08:28:34;;;;;;;48.42;17.95;;;5.80;99.90;;;;;;4996318;28;20066;-87
2022/11/24 08:31:08;;;;;;;50.00;13.95;;;5.80;99.90;;;;;;4996548;28;20026;-88
2022/11/24 08:33:35;;;;;;;59.13;16.50;;;5.90;99.90;;;;;;4992902;28;20077;-87
2022/11/24 08:36:06;;;;;;;68.90;17.27;;;5.80;99.90;;;;;;4995942;28;20023;-87
2022/11/24 08:38:32;;;;;;;50.58;17.02;;;5.80;99.90;;;;;;4979903;28;20060;-87
2022/11/24 08:41:02;;;;;;;44.50;14.95;;;5.80;99.90;;;;;;4996287;28;20749;-87
2022/11/24 08:43:28;;;;;;;49.88;14.10;;;5.80;99.90;;;;;;4979119;28;20034;-86
2022/11/24 08:45:54;;;;;;;48.10;12.55;;;5.80;99.90;;;;;;4995740;28;20022;-87
2022/11/24 08:48:19;;;;;;;42.17;12.65;;;5.80;99.90;;;;;;4994598;28;20038;-87
2022/11/24 08:50:45;;;;;;;44.35;13.25;;;5.80;99.90;;;;;;4994174;28;20037;-86
2022/11/24 08:53:11;;;;;;;41.72;11.52;;;5.90;99.90;;;;;;4995691;28;20041;-87
2022/11/24 08:55:36;;;;;;;39.83;11.02;;;5.90;99.90;;;;;;5002529;28;20026;-88
2022/11/24 09:01:49;;;;;;;44.08;11.65;;;6.00;99.90;;;;;;4993018;28;20061;-89
2022/11/24 09:04:15;;;;;;;50.08;13.57;;;6.10;99.90;;;;;;5000207;28;20026;-90
2022/11/24 09:06:40;;;;;;;40.65;11.85;;;6.00;99.90;;;;;;4992084;28;20026;-90
2022/11/24 09:09:08;;;;;;;42.38;11.80;;;6.00;99.90;;;;;;4992494;28;20038;-89
2022/11/24 09:11:33;;;;;;;44.22;11.68;;;6.00;99.90;;;;;;4992019;28;20038;-89
2022/11/24 09:13:59;;;;;;;45.05;11.88;;;6.10;99.90;;;;;;4992223;28;20025;-89
2022/11/24 09:16:27;;;;;;;34.53;11.82;;;6.00;99.90;;;;;;5001410;28;20034;-90
2022/11/24 09:19:36;;;;;;;43.03;14.35;;;6.00;99.90;;;;;;5010985;28;20101;-89
2022/11/24 09:22:29;;;;;;;33.22;12.45;;;6.00;99.90;;;;;;4995078;28;20077;-89
2022/11/24 09:24:55;;;;;;;47.85;21.55;;;6.10;99.90;;;;;;5007664;28;20065;-89
2022/11/24 09:27:21;;;;;;;42.75;13.57;;;6.20;99.90;;;;;;5008196;28;20049;-90
2022/11/24 09:29:47;;;;;;;31.80;11.93;;;6.20;99.90;;;;;;4990375;28;20394;-89
2022/11/24 09:32:13;;;;;;;90.03;30.08;;;6.20;99.90;;;;;;5007688;28;20092;-88
2022/11/24 09:34:39;;;;;;;42.17;14.23;;;6.10;99.90;;;;;;4988178;28;20023;-87
2022/11/24 09:37:06;;;;;;;27.13;8.63;;;6.00;99.90;;;;;;5007435;28;20026;-88
2022/11/24 09:39:32;;;;;;;44.03;9.70;;;6.00;99.90;;;;;;5005888;28;20085;-89
2022/11/24 09:42:03;;;;;;;33.33;7.97;;;5.90;99.90;;;;;;5024013;28;20025;-90
2022/11/24 09:44:35;;;;;;;;;;;6.00;99.90;;;;;;5007500;28;20416;-90
2022/11/24 09:47:35;;;;;;;36.00;10.38;;;6.10;99.90;;;;;;5010938;28;20380;-89
2022/11/24 09:50:10;;;;;;;31.38;9.00;;;6.20;99.90;;;;;;5002512;28;20037;-89
2022/11/24 09:53:00;;;;;;;29.88;8.25;;;6.20;99.90;;;;;;5010106;28;20768;-89
2022/11/24 09:55:46;;;;;;;35.20;9.23;;;6.50;99.90;;;;;;4999892;28;20034;-89
2022/11/24 09:58:35;;;;;;;30.50;7.43;;;6.70;99.90;;;;;;4980537;28;20035;-86
2022/11/24 10:04:31;;;;;;;23.38;4.82;;;7.00;99.90;;;;;;5020565;28;20137;-87
2022/11/24 10:07:03;;;;;;;24.35;4.97;;;7.00;99.90;;;;;;5000474;28;20038;-88
2022/11/24 10:09:44;;;;;;;22.42;4.30;;;7.10;99.90;;;;;;5008015;28;20033;-89
2022/11/24 10:12:34;;;;;;;23.08;4.57;;;7.10;99.90;;;;;;5001336;28;20096;-88
2022/11/24 10:15:20;;;;;;;20.27;5.35;;;7.00;99.90;;;;;;4997392;28;20034;-89
2022/11/24 10:18:05;;;;;;;17.17;4.03;;;7.10;99.90;;;;;;5001345;28;20034;-89
2022/11/24 10:20:48;;;;;;;15.88;3.40;;;7.10;99.90;;;;;;5006895;28;20026;-89
2022/11/24 10:23:40;;;;;;;16.45;3.55;;;7.00;99.90;;;;;;5001180;28;20034;-89
2022/11/24 10:26:31;;;;;;;11.18;3.15;;;7.00;99.90;;;;;;5000488;28;20683;-89
2022/11/24 10:28:57;;;;;;;13.77;3.88;;;6.90;99.90;;;;;;4978257;28;20087;-89
2022/11/24 10:31:53;;;;;;;14.30;3.72;;;6.90;99.90;;;;;;4995792;28;20117;-88
2022/11/24 10:34:28;;;;;;;18.33;4.13;;;6.90;99.90;;;;;;4975066;28;20092;-88
2022/11/24 10:37:09;;;;;;;12.15;4.03;;;6.80;99.90;;;;;;5006380;28;20037;-87
2022/11/24 10:40:00;;;;;;;16.13;4.22;;;6.70;99.90;;;;;;5004692;28;20454;-87
2022/11/24 10:42:33;;;;;;;18.90;4.13;;;6.80;99.90;;;;;;4998857;28;20038;-88
2022/11/24 10:45:08;;;;;;;13.38;4.10;;;6.80;99.90;;;;;;4976320;28;20057;-87
2022/11/24 10:47:33;;;;;;;20.70;3.92;;;6.80;99.90;;;;;;4991012;28;20042;-88
2022/11/24 10:50:20;;;;;;;20.08;4.90;;;7.00;99.90;;;;;;4994603;28;20528;-87
2022/11/24 10:52:49;;;;;;;16.05;4.22;;;7.20;99.90;;;;;;4983463;28;20117;-88
2022/11/24 10:55:15;;;;;;;15.00;3.85;;;7.40;99.90;;;;;;4976369;28;20030;-88
2022/11/24 10:57:42;;;;;;;21.00;4.15;;;7.40;99.90;;;;;;4991938;28;20493;-88
2022/11/24 11:00:17;;;;;;;18.02;5.05;;;7.50;99.90;;;;;;5001101;28;20045;-89
2022/11/24 11:02:43;;;;;;;16.30;3.45;;;7.60;99.90;;;;;;4993454;28;20038;-89
2022/11/24 11:05:31;;;;;;;16.38;3.47;;;7.80;99.90;;;;;;4975510;28;20077;-89
2022/11/24 11:08:18;;;;;;;12.73;2.75;;;8.00;99.90;;;;;;4977626;28;20126;-88
2022/11/24 11:10:46;;;;;;;17.13;4.07;;;8.00;99.90;;;;;;4980179;28;20027;-89
2022/11/24 11:13:51;;;;;;;17.70;5.38;;;8.00;99.90;;;;;;4994487;28;20081;-88
2022/11/24 11:16:35;;;;;;;11.68;2.92;;;8.20;99.90;;;;;;4996268;28;20031;-89
2022/11/24 11:19:03;;;;;;;11.90;2.97;;;8.50;99.90;;;;;;4994302;28;20031;-88
2022/11/24 11:21:35;;;;;;;15.95;3.28;;;8.70;99.90;;;;;;4994461;28;20026;-90
2022/11/24 11:24:07;;;;;;;18.90;3.15;;;8.60;99.90;;;;;;4992757;28;20390;-90
2022/11/24 11:26:36;;;;;;;11.77;2.40;;;8.60;99.90;;;;;;5002866;28;20125;-90
2022/11/24 11:29:11;;;;;;;5.85;1.95;;;8.50;99.90;;;;;;4995189;28;20058;-89
2022/11/24 11:31:38;;;;;;;8.93;2.65;;;8.30;99.90;;;;;;4990036;28;20037;-90
2022/11/24 11:34:14;;;;;;;13.48;3.22;;;8.50;99.90;;;;;;4994787;28;20034;-90
2022/11/24 11:36:44;;;;;;;14.30;3.70;;;8.80;99.90;;;;;;4996249;28;20041;-89
2022/11/24 11:39:33;;;;;;;12.35;2.50;;;9.10;99.90;;;;;;4997815;28;20031;-90
2022/11/24 11:42:11;;;;;;;19.25;2.90;;;9.40;99.90;;;;;;4997787;28;20022;-90
2022/11/24 11:44:52;;;;;;;12.95;2.92;;;9.40;99.90;;;;;;4991496;28;20054;-90
2022/11/24 11:47:44;;;;;;;;;;;9.30;99.90;;;;;;4994010;28;20023;-89
2022/11/24 11:50:14;;;;;;;;;;;9.30;99.90;;;;;;4967469;28;20049;-88
2022/11/24 11:55:09;;;;;;;16.20;2.83;;;8.90;99.90;;;;;;5077951;27;20394;-90
2022/11/24 11:57:51;;;;;;;10.88;2.67;;;8.90;99.90;;;;;;5048541;28;20045;-90
2022/11/24 12:00:21;;;;;;;;;;;8.90;99.90;;;;;;5051522;28;20075;-89
2022/11/24 12:03:14;;;;;;;13.80;2.78;;;8.90;99.90;;;;;;5056305;28;19947;-90
2022/11/24 12:05:49;;;;;;;15.45;3.10;;;8.80;99.90;;;;;;5066448;28;20033;-90
2022/11/24 12:08:23;;;;;;;12.30;2.60;;;8.90;99.90;;;;;;5050687;28;20044;-90
2022/11/24 12:11:07;;;;;;;12.45;2.55;;;8.70;99.90;;;;;;5047486;28;20152;-89
2022/11/24 12:13:41;;;;;;;10.02;2.97;;;8.50;99.90;;;;;;5065602;28;20031;-90
2022/11/24 12:16:32;;;;;;;10.45;3.42;;;8.30;99.90;;;;;;5070601;28;20025;-90
2022/11/24 12:19:17;;;;;;;11.80;2.97;;;8.10;99.90;;;;;;5076128;28;20024;-90
2022/11/24 12:22:01;;;;;;;6.85;2.50;;;7.90;99.90;;;;;;5068638;28;20059;-89
2022/11/24 12:24:26;;;;;;;11.65;2.70;;;7.80;99.90;;;;;;5054195;28;20072;-91
2022/11/24 12:26:59;;;;;;;16.10;2.83;;;7.90;99.90;;;;;;5070334;28;20036;-90
2022/11/24 12:29:44;;;;;;;10.50;2.90;;;7.90;99.90;;;;;;5050708;28;20033;-90
2022/11/24 12:32:28;;;;;;;15.50;4.10;;;8.00;99.90;;;;;;5051108;28;20039;-89
2022/11/24 12:34:57;;;;;;;7.40;2.75;;;8.20;99.90;;;;;;5069925;28;20685;-89
2022/11/24 12:37:38;;;;;;;12.23;2.92;;;8.20;99.90;;;;;;5053097;28;20046;-90
2022/11/24 12:40:12;;;;;;;;;;;8.10;99.90;;;;;;5053063;28;20086;-90
2022/11/24 12:43:09;;;;;;;8.10;2.78;;;7.90;99.90;;;;;;5065013;28;19963;-91
2022/11/24 12:45:43;;;;;;;11.10;2.60;;;7.80;99.90;;;;;;5061393;28;20025;-90
2022/11/24 12:48:19;;;;;;;8.40;2.63;;;7.80;99.90;;;;;;5037358;28;20037;-90
2022/11/24 12:50:46;;;;;;;13.43;2.90;;;7.90;99.90;;;;;;5038804;28;20029;-88
2022/11/24 12:53:25;;;;;;;12.60;3.08;;;7.80;99.90;;;;;;5053148;28;20075;-90
2022/11/24 12:55:52;;;;;;;22.08;3.13;;;7.70;99.90;;;;;;5053639;28;20052;-90
2022/11/24 12:58:29;;;;;;;16.95;3.20;;;7.60;99.90;;;;;;5052771;28;20033;-90
2022/11/24 13:01:05;;;;;;;13.85;3.35;;;7.50;99.90;;;;;;5050030;28;20035;-88
2022/11/24 13:04:06;;;;;;;18.90;5.38;;;7.50;99.90;;;;;;5035011;28;20064;-89
2022/11/24 13:06:46;;;;;;;20.27;3.95;;;7.50;99.90;;;;;;5059041;28;20057;-90
2022/11/24 13:09:12;;;;;;;14.90;4.18;;;7.60;99.90;;;;;;5036264;28;20047;-89
2022/11/24 13:11:47;;;;;;;17.50;3.28;;;7.60;99.90;;;;;;5039075;28;20783;-90
2022/11/24 13:14:30;;;;;;;14.90;3.42;;;7.50;99.90;;;;;;5056709;28;20125;-90
2022/11/24 13:17:00;;;;;;;13.18;3.10;;;7.50;99.90;;;;;;5039311;28;20087;-90
2022/11/24 13:19:34;;;;;;;14.43;3.57;;;7.60;99.90;;;;;;5056300;28;20062;-90
2022/11/24 13:22:13;;;;;;;19.05;4.63;;;7.60;99.90;;;;;;5032056;28;20294;-90